Time;durP1;ratioP1;P1;durP2;ratioP2;P2;SDS_P1;SDS_P2;PMS_P1;PMS_P2;Temp;Humidity;BMP_temperature;BMP_pressure;BME280_temperature;BME280_humidity;BME280_pressure;Samples;Min_cycle;Max_cycle;Signal;HPM_P1;HPM_P2
2023/06/10 00:02:25;;;;;;;6.25;2.20;;;24.80;62.70;;;;;;7404229;19;19986;-60
2023/06/10 00:04:56;;;;;;;4.93;2.15;;;24.70;62.70;;;;;;7405128;19;19969;-61
2023/06/10 00:07:26;;;;;;;6.47;2.17;;;24.70;62.70;;;;;;7403569;19;19944;-59
2023/06/10 00:09:55;;;;;;;6.63;2.00;;;24.70;62.70;;;;;;7404033;19;19918;-59
2023/06/10 00:12:24;;;;;;;4.32;2.00;;;24.70;62.80;;;;;;7401993;19;19911;-60
2023/06/10 00:14:56;;;;;;;5.38;1.70;;;24.60;62.90;;;;;;7406113;19;19929;-60
2023/06/10 00:17:25;;;;;;;4.38;1.70;;;24.60;62.80;;;;;;7405056;19;19910;-59
2023/06/10 00:19:57;;;;;;;5.75;1.80;;;24.60;62.80;;;;;;7405657;19;19918;-59
2023/06/10 00:22:29;;;;;;;4.10;1.58;;;24.50;62.80;;;;;;7402722;19;19919;-59
2023/06/10 00:24:58;;;;;;;7.50;2.35;;;24.60;62.90;;;;;;7405518;19;20720;-60
2023/06/10 00:27:31;;;;;;;;;;;24.50;62.90;;;;;;7407717;19;19918;-59
2023/06/10 00:30:04;;;;;;;3.47;1.88;;;24.50;62.90;;;;;;7406190;19;19972;-59
2023/06/10 00:32:33;;;;;;;4.60;2.17;;;24.50;63.00;;;;;;7402321;19;19926;-58
2023/06/10 00:35:13;;;;;;;4.15;2.10;;;24.50;63.00;;;;;;7402805;19;19926;-60
2023/06/10 00:37:42;;;;;;;6.43;2.08;;;24.50;63.60;;;;;;7404548;19;19918;-59
2023/06/10 00:40:13;;;;;;;3.95;1.75;;;24.40;63.00;;;;;;7403562;19;19915;-59
2023/06/10 00:42:43;;;;;;;6.47;1.98;;;24.40;63.00;;;;;;7404310;19;19978;-60
2023/06/10 00:45:15;;;;;;;4.93;2.05;;;24.40;63.10;;;;;;7404808;19;19945;-59
2023/06/10 00:47:44;;;;;;;5.10;1.70;;;24.40;63.70;;;;;;7404979;19;19922;-60
2023/06/10 00:50:13;;;;;;;4.22;2.20;;;24.40;63.10;;;;;;7404942;19;19939;-59
2023/06/10 00:52:44;;;;;;;;;;;24.40;63.10;;;;;;7406866;19;19929;-59
2023/06/10 00:55:14;;;;;;;4.70;1.75;;;24.30;63.00;;;;;;7403106;19;19923;-60
2023/06/10 00:57:44;;;;;;;6.35;1.75;;;24.30;63.10;;;;;;7404884;19;19922;-59
2023/06/10 01:00:17;;;;;;;8.27;2.30;;;24.30;63.10;;;;;;7403199;19;20007;-59
2023/06/10 01:02:46;;;;;;;3.90;1.85;;;24.30;63.10;;;;;;7403564;19;19915;-59
2023/06/10 01:05:16;;;;;;;4.18;1.85;;;24.20;63.10;;;;;;7405412;19;19914;-59
2023/06/10 01:07:53;;;;;;;3.38;1.75;;;24.20;63.10;;;;;;7404355;19;20639;-59
2023/06/10 01:10:29;;;;;;;3.28;1.50;;;24.20;63.10;;;;;;7403818;19;19936;-59
2023/06/10 01:13:02;;;;;;;4.75;1.90;;;24.20;63.20;;;;;;7401956;19;19914;-59
2023/06/10 01:15:35;;;;;;;5.93;1.73;;;24.20;63.20;;;;;;7404463;19;19918;-59
2023/06/10 01:18:14;;;;;;;4.47;1.73;;;24.20;63.30;;;;;;7402329;19;19938;-59
2023/06/10 01:20:47;;;;;;;5.32;1.77;;;24.10;63.20;;;;;;7402659;19;19918;-59
2023/06/10 01:23:19;;;;;;;5.60;2.15;;;24.10;63.20;;;;;;7403718;19;19926;-59
2023/06/10 01:25:55;;;;;;;4.47;1.95;;;24.00;63.20;;;;;;7404627;19;19914;-59
2023/06/10 01:28:29;;;;;;;4.88;2.08;;;24.00;63.20;;;;;;7403119;19;19914;-59
2023/06/10 01:31:11;;;;;;;3.67;1.77;;;24.00;63.20;;;;;;7401507;19;19929;-59
2023/06/10 01:33:44;;;;;;;5.18;2.20;;;24.00;63.30;;;;;;7399492;19;19926;-59
2023/06/10 01:36:15;;;;;;;3.15;1.55;;;24.00;63.30;;;;;;7404481;19;19918;-59
2023/06/10 01:38:48;;;;;;;4.30;1.77;;;24.00;63.20;;;;;;7403675;19;19919;-60
2023/06/10 01:41:21;;;;;;;4.20;2.22;;;24.00;63.30;;;;;;7404275;19;19922;-59
2023/06/10 01:43:51;;;;;;;4.25;1.63;;;23.90;63.30;;;;;;7402743;19;20385;-59
2023/06/10 01:46:21;;;;;;;3.83;1.85;;;23.90;63.30;;;;;;7402660;19;19922;-59
2023/06/10 01:48:51;;;;;;;5.05;1.90;;;23.90;63.40;;;;;;7404596;19;19956;-59
2023/06/10 01:51:20;;;;;;;3.45;1.58;;;23.90;63.40;;;;;;7402640;19;19957;-59
2023/06/10 01:53:52;;;;;;;6.05;1.70;;;23.90;63.40;;;;;;7402820;19;19926;-59
2023/06/10 01:56:22;;;;;;;3.75;1.75;;;23.90;63.40;;;;;;7402376;19;19927;-59
2023/06/10 01:58:51;;;;;;;5.63;1.92;;;23.80;63.40;;;;;;7401142;19;19918;-59
2023/06/10 02:01:20;;;;;;;3.15;1.52;;;23.80;63.50;;;;;;7401745;19;19986;-59
2023/06/10 02:03:51;;;;;;;3.85;1.88;;;23.80;63.50;;;;;;7400389;19;20341;-59
2023/06/10 02:06:20;;;;;;;4.72;1.65;;;23.80;63.50;;;;;;7402243;19;19914;-59
2023/06/10 02:08:52;;;;;;;7.60;2.10;;;23.80;63.50;;;;;;7398783;19;20343;-58
2023/06/10 02:11:21;;;;;;;3.28;1.38;;;23.70;63.50;;;;;;7402211;19;20366;-59
2023/06/10 02:13:50;;;;;;;3.60;1.92;;;23.70;63.50;;;;;;7400150;19;19921;-58
2023/06/10 02:16:27;;;;;;;3.80;2.15;;;23.70;63.60;;;;;;7402300;19;19923;-58
2023/06/10 02:18:57;;;;;;;4.18;1.27;;;23.70;63.50;;;;;;7402145;19;19970;-59
2023/06/10 02:21:26;;;;;;;3.78;1.85;;;23.70;63.70;;;;;;7402502;19;19923;-59
2023/06/10 02:23:58;;;;;;;3.80;2.13;;;23.60;63.60;;;;;;7401578;19;20360;-59
2023/06/10 02:26:29;;;;;;;3.25;1.75;;;23.60;63.60;;;;;;7401840;19;19918;-59
2023/06/10 02:28:58;;;;;;;3.08;1.58;;;23.60;63.70;;;;;;7401561;19;19925;-59
2023/06/10 02:31:28;;;;;;;4.07;1.65;;;23.60;63.70;;;;;;7403864;19;20602;-60
2023/06/10 02:33:58;;;;;;;3.00;1.38;;;23.60;63.70;;;;;;7406694;19;19922;-59
2023/06/10 02:36:28;;;;;;;3.92;1.33;;;23.60;63.70;;;;;;7406657;19;19922;-59
2023/06/10 02:38:59;;;;;;;3.88;1.58;;;23.60;63.70;;;;;;7407592;19;19915;-59
2023/06/10 02:41:28;;;;;;;3.08;1.50;;;23.50;63.70;;;;;;7406746;19;19957;-59
2023/06/10 02:43:58;;;;;;;5.25;1.52;;;23.50;63.70;;;;;;7407990;19;19919;-60
2023/06/10 02:46:28;;;;;;;3.03;1.50;;;23.50;63.80;;;;;;7408621;19;19915;-59
2023/06/10 02:48:57;;;;;;;3.70;1.85;;;23.50;63.80;;;;;;7407487;19;19993;-59
2023/06/10 02:51:27;;;;;;;4.72;1.58;;;23.50;63.80;;;;;;7407765;19;19932;-59
2023/06/10 02:54:01;;;;;;;4.00;1.67;;;23.50;63.80;;;;;;7405281;19;19945;-59
2023/06/10 02:56:31;;;;;;;5.28;1.85;;;23.50;63.80;;;;;;7406147;19;19915;-60
2023/06/10 02:59:00;;;;;;;3.22;1.42;;;23.40;63.80;;;;;;7408386;19;19919;-59
2023/06/10 03:01:31;;;;;;;2.88;1.20;;;23.40;63.80;;;;;;7406161;19;19940;-59
2023/06/10 03:04:00;;;;;;;2.60;1.33;;;23.40;63.80;;;;;;7407941;19;19915;-59
2023/06/10 03:06:30;;;;;;;4.47;1.75;;;23.40;63.90;;;;;;7406952;19;19918;-59
2023/06/10 03:09:01;;;;;;;3.85;1.80;;;23.30;63.80;;;;;;7405964;19;20435;-59
2023/06/10 03:11:30;;;;;;;3.50;1.48;;;23.40;63.90;;;;;;7407226;19;19922;-59
2023/06/10 03:14:00;;;;;;;3.60;1.60;;;23.30;63.90;;;;;;7406750;19;19922;-59
2023/06/10 03:16:32;;;;;;;3.60;1.60;;;23.30;63.90;;;;;;7406107;19;19918;-60
2023/06/10 03:19:01;;;;;;;4.22;1.60;;;23.30;63.90;;;;;;7406627;19;19927;-60
2023/06/10 03:21:30;;;;;;;3.33;1.33;;;23.30;63.90;;;;;;7406909;19;19911;-59
2023/06/10 03:24:02;;;;;;;4.03;1.60;;;23.30;64.00;;;;;;7408190;19;19939;-59
2023/06/10 03:26:31;;;;;;;2.75;1.38;;;23.20;63.90;;;;;;7406773;19;20333;-59
2023/06/10 03:29:02;;;;;;;3.25;1.42;;;23.20;63.90;;;;;;7405449;19;20784;-59
2023/06/10 03:31:41;;;;;;;3.88;1.40;;;23.20;64.00;;;;;;7406537;19;19919;-59
2023/06/10 03:34:11;;;;;;;3.17;1.13;;;23.20;64.00;;;;;;7405578;19;19978;-60
2023/06/10 03:36:44;;;;;;;2.65;1.38;;;23.20;64.00;;;;;;7406742;19;19953;-59
2023/06/10 03:39:16;;;;;;;4.18;1.30;;;23.10;64.00;;;;;;7405686;19;19935;-59
2023/06/10 03:41:48;;;;;;;2.83;1.60;;;23.10;64.10;;;;;;7406697;19;20384;-59
2023/06/10 03:44:20;;;;;;;3.45;1.58;;;23.20;64.10;;;;;;7406621;19;19951;-59
2023/06/10 03:46:49;;;;;;;4.03;2.00;;;23.10;64.00;;;;;;7407319;19;19919;-60
2023/06/10 03:49:18;;;;;;;3.63;1.80;;;23.20;64.10;;;;;;7404799;19;19944;-59
2023/06/10 03:51:47;;;;;;;3.67;1.35;;;23.10;64.10;;;;;;7407267;19;20274;-59
2023/06/10 03:54:19;;;;;;;2.70;1.30;;;23.10;64.10;;;;;;7406020;19;19933;-59
2023/06/10 03:56:48;;;;;;;2.65;1.15;;;23.10;64.10;;;;;;7407575;19;19918;-60
2023/06/10 03:59:20;;;;;;;2.47;1.27;;;23.10;64.10;;;;;;7405378;19;20312;-60
2023/06/10 04:01:49;;;;;;;3.45;1.25;;;23.10;64.10;;;;;;7403989;19;19994;-59
2023/06/10 04:04:19;;;;;;;3.17;1.20;;;23.10;64.20;;;;;;7406411;19;20283;-59
2023/06/10 04:06:48;;;;;;;3.08;1.27;;;23.10;64.20;;;;;;7404088;19;19927;-60
2023/06/10 04:09:20;;;;;;;;;;;23.10;64.20;;;;;;7406209;19;19960;-59
2023/06/10 04:11:49;;;;;;;3.30;1.55;;;23.00;64.20;;;;;;7404155;19;19919;-59
2023/06/10 04:14:18;;;;;;;3.85;1.30;;;23.00;64.20;;;;;;7404593;19;19986;-60
2023/06/10 04:16:47;;;;;;;4.10;1.33;;;23.00;64.20;;;;;;7404298;19;19922;-59
2023/06/10 04:19:21;;;;;;;3.25;1.42;;;23.00;64.20;;;;;;7405464;19;19970;-60
2023/06/10 04:21:50;;;;;;;3.60;1.65;;;23.00;64.20;;;;;;7404541;19;19948;-60
2023/06/10 04:24:22;;;;;;;3.13;1.63;;;23.00;64.20;;;;;;7405384;19;20025;-59
2023/06/10 04:26:51;;;;;;;2.38;1.30;;;23.00;64.20;;;;;;7403366;19;19997;-59
2023/06/10 04:29:30;;;;;;;3.08;1.23;;;23.00;64.20;;;;;;7406104;19;19918;-59
2023/06/10 04:32:01;;;;;;;3.25;1.33;;;23.00;64.20;;;;;;7404275;19;19925;-59
2023/06/10 04:34:30;;;;;;;3.00;1.27;;;23.00;64.20;;;;;;7405176;19;19922;-62
2023/06/10 04:36:59;;;;;;;3.25;1.42;;;23.00;64.20;;;;;;7404210;19;19915;-60
2023/06/10 04:39:31;;;;;;;3.05;1.23;;;23.00;64.20;;;;;;7405678;19;19922;-59
2023/06/10 04:42:02;;;;;;;3.22;1.17;;;23.00;64.20;;;;;;7403593;19;19923;-64
2023/06/10 04:44:32;;;;;;;3.28;1.33;;;23.00;64.20;;;;;;7404739;19;19931;-60
2023/06/10 04:47:01;;;;;;;4.03;1.38;;;23.00;64.10;;;;;;7402970;19;19918;-59
2023/06/10 04:49:31;;;;;;;3.35;1.33;;;23.00;64.20;;;;;;7403144;19;19915;-62
2023/06/10 04:52:00;;;;;;;3.78;1.40;;;23.00;64.20;;;;;;7405125;19;19959;-59
2023/06/10 04:54:32;;;;;;;3.33;1.27;;;23.00;64.20;;;;;;7401469;19;19922;-60
2023/06/10 04:57:02;;;;;;;3.83;1.40;;;23.00;64.20;;;;;;7404356;19;19923;-60
2023/06/10 04:59:38;;;;;;;2.40;1.02;;;23.00;64.20;;;;;;7404207;19;19914;-60
2023/06/10 05:02:07;;;;;;;3.22;1.45;;;23.00;64.30;;;;;;7402651;19;19978;-59
2023/06/10 05:04:39;;;;;;;2.67;1.02;;;23.00;64.20;;;;;;7403277;19;19970;-60
2023/06/10 05:07:08;;;;;;;;;;;23.00;64.30;;;;;;7407189;19;19922;-59
2023/06/10 05:10:00;;;;;;;4.72;1.52;;;23.00;64.20;;;;;;7403045;19;19915;-60
2023/06/10 05:12:48;;;;;;;3.90;1.25;;;23.00;64.30;;;;;;7401273;19;19933;-59
2023/06/10 05:15:37;;;;;;;3.63;1.33;;;23.00;64.30;;;;;;7401376;19;20502;-60
2023/06/10 05:18:27;;;;;;;3.03;1.52;;;23.00;64.20;;;;;;7400996;19;19934;-59
2023/06/10 05:21:16;;;;;;;3.47;1.98;;;23.00;64.20;;;;;;7401920;19;19918;-60
2023/06/10 05:24:06;;;;;;;3.03;1.52;;;23.00;64.20;;;;;;7400837;19;20275;-61
2023/06/10 05:26:57;;;;;;;2.58;1.25;;;23.00;64.20;;;;;;7402522;19;19921;-60
2023/06/10 05:29:28;;;;;;;2.97;1.45;;;23.00;64.70;;;;;;7402823;19;20323;-60
2023/06/10 05:32:00;;;;;;;3.67;1.60;;;23.00;64.20;;;;;;7404586;19;20494;-59
2023/06/10 05:34:29;;;;;;;3.42;1.50;;;23.00;64.20;;;;;;7400102;19;19915;-59
2023/06/10 05:36:58;;;;;;;3.13;1.30;;;23.00;64.20;;;;;;7402373;19;19918;-60
2023/06/10 05:39:27;;;;;;;2.80;1.23;;;23.00;64.20;;;;;;7403029;19;19925;-59
2023/06/10 05:42:02;;;;;;;3.20;1.27;;;23.00;64.20;;;;;;7401462;19;20164;-60
2023/06/10 05:44:32;;;;;;;3.55;1.50;;;23.00;64.20;;;;;;7402322;19;19970;-59
2023/06/10 05:47:01;;;;;;;2.55;1.08;;;23.00;64.20;;;;;;7402445;19;20269;-60
2023/06/10 05:49:30;;;;;;;3.80;1.23;;;23.00;64.20;;;;;;7402311;19;19925;-60
2023/06/10 05:51:59;;;;;;;2.70;1.27;;;23.00;64.30;;;;;;7400437;19;19914;-59
2023/06/10 05:54:29;;;;;;;2.70;1.30;;;23.00;64.30;;;;;;7402399;19;19922;-58
2023/06/10 05:57:01;;;;;;;3.83;1.27;;;23.00;64.20;;;;;;7401189;19;20373;-59
2023/06/10 05:59:30;;;;;;;2.90;1.33;;;23.00;64.20;;;;;;7403046;19;19907;-62
2023/06/10 06:01:59;;;;;;;3.70;1.10;;;23.00;64.20;;;;;;7400263;19;19918;-59
2023/06/10 06:04:28;;;;;;;;;;;23.00;64.10;;;;;;7405348;19;19923;-60
2023/06/10 06:06:57;;;;;;;3.72;1.40;;;23.00;64.10;;;;;;7406196;19;19933;-60
2023/06/10 06:09:28;;;;;;;3.42;1.58;;;23.00;64.10;;;;;;7408830;19;19922;-59
2023/06/10 06:11:59;;;;;;;3.35;1.30;;;23.00;64.10;;;;;;7407651;19;19910;-59
2023/06/10 06:14:34;;;;;;;3.17;1.20;;;23.00;64.20;;;;;;7406160;19;19923;-60
2023/06/10 06:17:03;;;;;;;3.53;1.48;;;23.00;64.20;;;;;;7407661;19;20317;-60
2023/06/10 06:19:32;;;;;;;3.55;1.13;;;23.00;64.20;;;;;;7409221;19;19986;-60
2023/06/10 06:22:02;;;;;;;3.97;1.63;;;23.10;64.10;;;;;;7407966;19;19918;-59
2023/06/10 06:24:31;;;;;;;;;;;23.10;64.30;;;;;;7411903;19;19935;-60
2023/06/10 06:27:04;;;;;;;4.20;1.50;;;23.00;64.10;;;;;;7408729;19;20336;-60
2023/06/10 06:29:33;;;;;;;3.53;1.65;;;23.10;64.10;;;;;;7409275;19;19918;-59
2023/06/10 06:32:08;;;;;;;3.90;1.58;;;23.10;64.10;;;;;;7407128;19;20400;-60
2023/06/10 06:34:37;;;;;;;5.63;2.35;;;23.10;63.90;;;;;;7404576;19;19949;-60
2023/06/10 06:37:07;;;;;;;5.57;1.80;;;23.00;64.00;;;;;;7407629;19;19929;-59
2023/06/10 06:39:37;;;;;;;4.32;1.70;;;23.10;63.90;;;;;;7406693;19;19926;-60
2023/06/10 06:42:10;;;;;;;4.78;1.58;;;23.00;63.90;;;;;;7407726;19;19977;-60
2023/06/10 06:44:40;;;;;;;4.25;1.80;;;23.10;63.90;;;;;;7405991;19;19935;-63
2023/06/10 06:47:09;;;;;;;5.68;2.13;;;23.10;63.90;;;;;;7408747;19;20446;-59
2023/06/10 06:49:38;;;;;;;3.95;1.70;;;23.10;63.90;;;;;;7408241;19;19926;-59
2023/06/10 06:52:08;;;;;;;5.03;1.98;;;23.10;63.90;;;;;;7408415;19;19915;-60
2023/06/10 06:54:37;;;;;;;6.43;1.80;;;23.10;63.90;;;;;;7406512;19;19915;-59
2023/06/10 06:57:09;;;;;;;6.68;1.60;;;23.10;63.90;;;;;;7407694;19;19952;-60
2023/06/10 06:59:38;;;;;;;3.65;1.50;;;23.10;63.90;;;;;;7407262;19;19935;-60
2023/06/10 07:02:08;;;;;;;4.70;1.33;;;23.10;63.90;;;;;;7407265;19;19931;-60
2023/06/10 07:04:37;;;;;;;3.20;1.08;;;23.20;63.90;;;;;;7406507;19;19941;-60
2023/06/10 07:07:09;;;;;;;5.38;1.48;;;23.10;63.90;;;;;;7407806;19;19926;-59
2023/06/10 07:09:38;;;;;;;6.53;1.73;;;23.20;63.90;;;;;;7408184;19;19963;-59
2023/06/10 07:12:11;;;;;;;3.70;1.50;;;23.20;63.90;;;;;;7407904;19;19919;-60
2023/06/10 07:14:41;;;;;;;3.90;1.52;;;23.20;63.80;;;;;;7407904;19;19918;-60
2023/06/10 07:17:10;;;;;;;4.20;1.45;;;23.20;63.80;;;;;;7407185;19;19925;-60
2023/06/10 07:19:39;;;;;;;4.88;1.65;;;23.20;63.70;;;;;;7406565;19;20332;-59
2023/06/10 07:22:09;;;;;;;4.15;1.73;;;23.20;63.70;;;;;;7405373;19;19940;-60
2023/06/10 07:24:38;;;;;;;4.78;1.90;;;23.20;63.70;;;;;;7405207;19;19927;-60
2023/06/10 07:27:10;;;;;;;3.58;1.75;;;23.30;63.80;;;;;;7407757;19;19923;-60
2023/06/10 07:29:39;;;;;;;3.13;1.52;;;23.30;63.80;;;;;;7407611;19;19926;-60
2023/06/10 07:32:09;;;;;;;2.65;1.25;;;23.30;63.70;;;;;;7405859;19;20829;-59
2023/06/10 07:34:38;;;;;;;2.88;1.48;;;23.30;63.70;;;;;;7405714;19;19929;-60
2023/06/10 07:37:08;;;;;;;3.30;1.40;;;23.30;63.80;;;;;;7405118;19;19952;-60
2023/06/10 07:39:41;;;;;;;3.30;1.35;;;23.30;63.70;;;;;;7405425;19;19925;-60
2023/06/10 07:42:12;;;;;;;4.88;1.55;;;23.30;63.70;;;;;;7406570;19;19947;-59
2023/06/10 07:44:43;;;;;;;2.83;1.33;;;23.30;63.60;;;;;;7406686;19;19929;-60
2023/06/10 07:47:12;;;;;;;4.65;1.40;;;23.30;63.70;;;;;;7405992;19;19939;-60
2023/06/10 07:49:41;;;;;;;3.33;1.55;;;23.40;63.70;;;;;;7405620;19;20469;-60
2023/06/10 07:52:10;;;;;;;;;;;23.40;63.60;;;;;;7409553;19;19919;-60
2023/06/10 07:54:39;;;;;;;3.40;1.52;;;23.40;63.60;;;;;;7406792;19;19928;-60
2023/06/10 07:57:12;;;;;;;4.10;1.50;;;23.40;63.60;;;;;;7403893;19;19934;-60
2023/06/10 07:59:41;;;;;;;3.30;1.42;;;23.40;63.60;;;;;;7406580;19;20197;-60
2023/06/10 08:02:12;;;;;;;4.78;1.35;;;23.40;63.60;;;;;;7405000;19;19918;-59
2023/06/10 08:04:41;;;;;;;4.13;1.38;;;23.40;63.60;;;;;;7407103;19;19923;-60
2023/06/10 08:07:10;;;;;;;3.47;1.23;;;23.40;63.60;;;;;;7404306;19;19930;-60
2023/06/10 08:09:40;;;;;;;3.80;1.50;;;23.50;63.60;;;;;;7405473;19;19919;-59
2023/06/10 08:12:13;;;;;;;3.30;1.58;;;23.50;63.60;;;;;;7404681;19;19914;-60
2023/06/10 08:14:42;;;;;;;2.85;1.30;;;23.50;63.50;;;;;;7406015;19;19922;-59
2023/06/10 08:17:12;;;;;;;3.25;1.63;;;23.50;63.50;;;;;;7403148;19;19918;-60
2023/06/10 08:19:41;;;;;;;2.92;1.10;;;23.50;63.50;;;;;;7404284;19;19925;-60
2023/06/10 08:22:10;;;;;;;3.75;1.45;;;23.50;63.50;;;;;;7404642;19;19918;-60
2023/06/10 08:24:44;;;;;;;2.55;1.20;;;23.50;63.50;;;;;;7403718;19;20358;-60
2023/06/10 08:27:16;;;;;;;3.05;1.55;;;23.50;63.40;;;;;;7405346;19;20501;-59
2023/06/10 08:29:45;;;;;;;2.70;1.55;;;23.50;63.40;;;;;;7402233;19;20333;-60
2023/06/10 08:32:14;;;;;;;3.53;1.50;;;23.60;63.50;;;;;;7405233;19;19982;-60
2023/06/10 08:34:43;;;;;;;3.25;1.80;;;23.60;63.40;;;;;;7405286;19;19918;-60
2023/06/10 08:37:13;;;;;;;2.85;1.42;;;23.60;63.40;;;;;;7403845;19;19940;-59
2023/06/10 08:39:42;;;;;;;2.38;1.50;;;23.60;63.40;;;;;;7405129;19;19918;-60
2023/06/10 08:42:25;;;;;;;3.17;1.48;;;23.60;63.30;;;;;;7404054;19;19954;-60
2023/06/10 08:44:58;;;;;;;2.88;1.73;;;23.60;63.30;;;;;;7405774;19;20605;-60
2023/06/10 08:47:31;;;;;;;2.90;1.30;;;23.60;63.30;;;;;;7406197;19;19914;-60
2023/06/10 08:50:04;;;;;;;3.38;1.27;;;23.70;63.30;;;;;;7405315;19;19915;-60
2023/06/10 08:52:39;;;;;;;3.50;1.40;;;23.70;63.90;;;;;;7404930;19;19970;-59
2023/06/10 08:55:17;;;;;;;3.22;1.55;;;23.70;63.30;;;;;;7404816;19;19922;-60
2023/06/10 08:57:49;;;;;;;4.93;1.63;;;23.70;63.30;;;;;;7404964;19;19952;-60
2023/06/10 09:00:19;;;;;;;3.75;1.60;;;23.70;63.20;;;;;;7404984;19;20268;-60
2023/06/10 09:02:49;;;;;;;2.92;1.27;;;23.70;63.20;;;;;;7404762;19;19922;-60
2023/06/10 09:05:19;;;;;;;3.83;1.48;;;23.70;63.20;;;;;;7404659;19;19918;-60
2023/06/10 09:07:50;;;;;;;3.83;1.80;;;23.70;63.20;;;;;;7404224;19;19918;-60
2023/06/10 09:10:19;;;;;;;3.30;1.65;;;23.80;63.30;;;;;;7403801;19;19918;-60
2023/06/10 09:12:51;;;;;;;4.35;1.55;;;23.70;63.10;;;;;;7404215;19;19982;-60
2023/06/10 09:15:25;;;;;;;3.10;1.10;;;23.80;63.20;;;;;;7404802;19;19996;-60
2023/06/10 09:18:14;;;;;;;3.50;1.52;;;23.80;63.20;;;;;;7403428;19;19918;-60
2023/06/10 09:20:45;;;;;;;3.17;1.75;;;23.90;63.20;;;;;;7404077;19;19973;-60
2023/06/10 09:23:18;;;;;;;2.67;1.17;;;23.90;63.20;;;;;;7404380;19;20306;-61
2023/06/10 09:25:47;;;;;;;4.03;1.40;;;23.90;63.10;;;;;;7404908;19;19935;-60
2023/06/10 09:28:19;;;;;;;2.95;1.15;;;23.90;63.20;;;;;;7404116;19;19922;-60
2023/06/10 09:30:48;;;;;;;2.72;1.25;;;23.90;63.10;;;;;;7404072;19;19978;-59
2023/06/10 09:33:21;;;;;;;3.00;1.45;;;23.90;63.10;;;;;;7403421;19;19918;-60
2023/06/10 09:35:56;;;;;;;3.80;1.48;;;23.90;63.00;;;;;;7400830;19;19926;-60
2023/06/10 09:38:32;;;;;;;3.33;1.35;;;23.90;63.00;;;;;;7402471;19;19930;-59
2023/06/10 09:41:01;;;;;;;3.63;1.35;;;24.00;63.10;;;;;;7406107;19;19943;-59
2023/06/10 09:43:48;;;;;;;2.92;1.42;;;24.00;63.00;;;;;;7408669;19;19929;-59
2023/06/10 09:46:19;;;;;;;2.97;1.60;;;24.00;63.00;;;;;;7409335;19;19918;-59
2023/06/10 09:48:50;;;;;;;3.33;1.35;;;24.00;63.00;;;;;;7409984;19;19925;-60
2023/06/10 09:51:19;;;;;;;3.05;1.23;;;24.00;63.00;;;;;;7409412;19;19918;-64
2023/06/10 09:53:52;;;;;;;2.28;1.25;;;24.00;63.00;;;;;;7410404;19;20622;-60
2023/06/10 09:56:23;;;;;;;3.05;1.35;;;24.10;63.00;;;;;;7407528;19;19986;-59
2023/06/10 09:58:57;;;;;;;3.55;0.93;;;24.10;63.00;;;;;;7410761;19;20252;-59
2023/06/10 10:01:26;;;;;;;2.58;1.25;;;24.10;63.60;;;;;;7408855;19;19926;-59
2023/06/10 10:03:56;;;;;;;3.05;1.30;;;24.10;63.00;;;;;;7409086;19;19948;-60
2023/06/10 10:06:30;;;;;;;2.97;1.15;;;24.20;63.10;;;;;;7408473;19;19923;-59
2023/06/10 10:08:59;;;;;;;3.22;1.45;;;24.20;63.00;;;;;;7407888;19;19932;-59
2023/06/10 10:11:29;;;;;;;2.30;1.10;;;24.20;63.00;;;;;;7409257;19;19986;-60
2023/06/10 10:14:01;;;;;;;3.08;1.13;;;24.20;63.00;;;;;;7408550;19;19922;-60
2023/06/10 10:16:38;;;;;;;2.45;1.20;;;24.20;63.00;;;;;;7408280;19;20344;-59
2023/06/10 10:19:12;;;;;;;2.65;1.23;;;24.30;63.00;;;;;;7409807;19;19985;-60
2023/06/10 10:21:53;;;;;;;3.20;1.40;;;24.30;63.00;;;;;;7409720;19;19926;-59
2023/06/10 10:24:25;;;;;;;3.42;1.38;;;24.30;63.00;;;;;;7407984;19;19914;-59
2023/06/10 10:26:58;;;;;;;3.00;1.33;;;24.30;62.90;;;;;;7408070;19;19926;-59
2023/06/10 10:29:35;;;;;;;2.80;1.00;;;24.40;63.00;;;;;;7408724;19;19949;-59
2023/06/10 10:32:06;;;;;;;2.80;1.38;;;24.40;63.00;;;;;;7407088;19;19917;-60
2023/06/10 10:34:43;;;;;;;2.53;1.02;;;24.40;62.90;;;;;;7408223;19;19963;-59
2023/06/10 10:37:13;;;;;;;3.00;1.35;;;24.40;62.90;;;;;;7405963;19;19914;-59
2023/06/10 10:39:44;;;;;;;2.75;1.42;;;24.50;62.90;;;;;;7409072;19;19955;-60
2023/06/10 10:42:14;;;;;;;2.80;1.23;;;24.50;62.80;;;;;;7407687;19;20307;-59
2023/06/10 10:44:47;;;;;;;3.42;1.08;;;24.50;62.80;;;;;;7408950;19;20233;-59
2023/06/10 10:47:18;;;;;;;3.85;1.50;;;24.50;62.70;;;;;;7408529;19;19919;-60
2023/06/10 10:49:48;;;;;;;2.90;1.20;;;24.60;62.80;;;;;;7408575;19;19924;-60
2023/06/10 10:52:18;;;;;;;2.10;1.15;;;24.60;62.70;;;;;;7406822;19;19926;-59
2023/06/10 10:54:50;;;;;;;2.20;1.40;;;24.60;62.60;;;;;;7408791;19;19943;-59
2023/06/10 10:57:21;;;;;;;2.75;1.10;;;24.70;62.60;;;;;;7406098;19;19926;-59
2023/06/10 10:59:59;;;;;;;3.25;1.40;;;24.70;62.60;;;;;;7407828;19;19906;-59
2023/06/10 11:02:42;;;;;;;2.55;1.45;;;24.70;62.60;;;;;;7408564;19;19919;-59
2023/06/10 11:05:18;;;;;;;2.30;1.20;;;24.70;62.50;;;;;;7406765;19;19970;-59
2023/06/10 11:07:56;;;;;;;2.55;1.23;;;24.80;62.60;;;;;;7407524;19;20482;-60
2023/06/10 11:10:33;;;;;;;2.58;1.30;;;24.80;62.50;;;;;;7406890;19;19914;-60
2023/06/10 11:13:02;;;;;;;3.20;1.08;;;24.90;62.50;;;;;;7404093;19;19923;-60
2023/06/10 11:15:34;;;;;;;;;;;24.90;62.50;;;;;;7409721;19;19955;-59
2023/06/10 11:18:27;;;;;;;2.72;1.02;;;24.90;62.50;;;;;;7404182;19;20284;-60
2023/06/10 11:21:02;;;;;;;2.60;1.20;;;24.90;62.50;;;;;;7408239;19;19987;-59
2023/06/10 11:23:45;;;;;;;3.10;1.67;;;24.90;62.40;;;;;;7407432;19;19926;-59
2023/06/10 11:26:20;;;;;;;2.97;1.27;;;25.00;62.40;;;;;;7405963;19;19927;-59
2023/06/10 11:29:07;;;;;;;2.22;1.08;;;25.10;62.40;;;;;;7405371;19;19918;-59
2023/06/10 11:31:43;;;;;;;2.47;1.23;;;25.00;62.30;;;;;;7406496;19;19922;-59
2023/06/10 11:34:12;;;;;;;2.53;1.13;;;25.10;62.30;;;;;;7407237;19;19918;-59
2023/06/10 11:36:45;;;;;;;3.10;1.52;;;25.10;62.30;;;;;;7405815;19;19929;-60
2023/06/10 11:39:14;;;;;;;3.22;1.05;;;25.10;62.20;;;;;;7405395;19;19947;-59
2023/06/10 11:41:44;;;;;;;2.55;1.02;;;25.20;62.20;;;;;;7405920;19;19922;-59
2023/06/10 11:44:13;;;;;;;;;;;25.20;62.20;;;;;;7409937;19;19965;-59
2023/06/10 11:46:45;;;;;;;3.03;1.40;;;25.20;62.20;;;;;;7406335;19;19922;-60
2023/06/10 11:49:15;;;;;;;2.97;1.52;;;25.20;62.20;;;;;;7405114;19;20475;-59
2023/06/10 11:51:49;;;;;;;2.35;1.25;;;25.30;62.20;;;;;;7407505;19;19966;-60
2023/06/10 11:54:19;;;;;;;2.47;1.30;;;25.30;62.20;;;;;;7405829;19;19922;-59
2023/06/10 11:56:49;;;;;;;2.17;0.90;;;25.30;62.10;;;;;;7406177;19;20249;-60
2023/06/10 11:59:30;;;;;;;2.42;1.20;;;25.30;62.10;;;;;;7406169;19;19933;-60
2023/06/10 12:02:22;;;;;;;2.88;1.40;;;25.30;62.10;;;;;;7401918;19;19915;-60
2023/06/10 12:05:15;;;;;;;2.42;1.35;;;25.40;62.10;;;;;;7401129;19;20288;-59
2023/06/10 12:08:14;;;;;;;2.08;1.08;;;25.40;62.10;;;;;;7403396;19;19926;-61
2023/06/10 12:11:03;;;;;;;2.85;1.25;;;25.40;62.00;;;;;;7404128;19;19919;-60
2023/06/10 12:13:53;;;;;;;2.40;1.33;;;25.50;62.10;;;;;;7404039;19;19922;-60
2023/06/10 12:16:42;;;;;;;2.58;1.23;;;25.50;62.00;;;;;;7404060;19;19914;-60
2023/06/10 12:19:35;;;;;;;2.70;1.30;;;25.50;62.00;;;;;;7404396;19;20370;-60
2023/06/10 12:22:26;;;;;;;2.60;1.30;;;25.50;61.90;;;;;;7403297;19;19925;-60
2023/06/10 12:25:15;;;;;;;2.58;1.10;;;25.50;61.90;;;;;;7404621;19;19978;-60
2023/06/10 12:28:04;;;;;;;2.63;1.02;;;25.60;61.90;;;;;;7405052;19;19939;-60
2023/06/10 12:30:34;;;;;;;3.47;1.33;;;25.60;62.00;;;;;;7406271;19;19950;-60
2023/06/10 12:33:05;;;;;;;2.63;1.10;;;25.70;62.00;;;;;;7404748;19;19947;-60
2023/06/10 12:35:51;;;;;;;3.13;1.50;;;25.70;62.00;;;;;;7403756;19;19930;-60
2023/06/10 12:38:26;;;;;;;3.65;1.30;;;25.70;61.90;;;;;;7404936;19;19926;-61
2023/06/10 12:41:03;;;;;;;2.65;1.23;;;25.70;61.80;;;;;;7405968;19;19915;-60
2023/06/10 12:43:34;;;;;;;2.83;1.33;;;25.80;61.90;;;;;;7404715;19;19939;-59
2023/06/10 12:46:12;;;;;;;2.45;1.25;;;25.80;61.80;;;;;;7405337;19;20289;-60
2023/06/10 12:48:54;;;;;;;2.95;1.65;;;25.80;61.80;;;;;;7405506;19;19941;-60
2023/06/10 12:51:28;;;;;;;2.20;1.23;;;25.90;61.80;;;;;;7405801;19;19954;-60
2023/06/10 12:53:58;;;;;;;4.60;1.30;;;25.90;61.80;;;;;;7405609;19;19974;-60
2023/06/10 12:56:28;;;;;;;2.30;1.33;;;25.90;61.70;;;;;;7405628;19;19922;-61
2023/06/10 12:58:59;;;;;;;2.35;1.30;;;25.90;61.70;;;;;;7403333;19;19922;-60
2023/06/10 13:01:29;;;;;;;2.80;0.93;;;26.00;61.70;;;;;;7403908;19;19930;-60
2023/06/10 13:04:00;;;;;;;2.63;1.30;;;26.00;61.70;;;;;;7404374;19;19919;-60
2023/06/10 13:06:36;;;;;;;2.47;1.13;;;26.00;61.60;;;;;;7404246;19;19978;-60
2023/06/10 13:09:06;;;;;;;2.83;1.45;;;26.10;61.60;;;;;;7403531;19;19950;-60
2023/06/10 13:11:37;;;;;;;3.50;1.58;;;26.10;61.70;;;;;;7404214;19;19943;-62
2023/06/10 13:14:08;;;;;;;2.25;1.23;;;26.10;61.60;;;;;;7403944;19;19911;-61
2023/06/10 13:16:38;;;;;;;3.30;1.45;;;26.10;61.60;;;;;;7402878;19;19922;-60